Meteoblue:





Windguru:








TAF EPZG

 

METAR EPZG

EPZG 291500Z 18009KT 150V210 CAVOK 23/09 Q1012

Location: EPZG
ZIELONA GORA - POLAND
Latitude: 52°08'19"N - Longitude: 015°47'55"E.
Magnetic declination: 4.27°E
Sunrise: 04:55 UTC
Sunset: 16:38 UTC
Report emitted the day: 29, time 15:00 UTC
Thursday 29 September 2016 17:00 local time.
Wind: True direction = 180 degrees, speed: 9 knots (17 km/h) (5 m/s).
Runway 06, length 8202 feet, altitude 194 feet: Cross Wind 8 KT Right - Centerline Wind 4 KT rear.
Runway 24, length 8202 feet, altitude 187 feet: Cross Wind 8 KT Left - Centerline Wind 4 KT front.
Wind direction is variable between 150 and 210 degrees.
CAVOK conditions: Visibility 10 km or more,
no cloud below 5,000 feet or below the MSA (whichever is greater),
no cumulonimbus, and no significant weather phenomena in
the aerodrome or its vicinity.
Temperature: 23 degrees Celsius (73 Fahrenheit). Dewpoint: 9 degrees Celsius (48 Fahrenheit). Relative humidity 40.92 %.
QNH (Sea-level pressure): 1012 hPa (29.88 inches).
0:27
Metar reliability - Emission time in hours and minutes
NOAA
Visual Flight Rules
9 KT
Wind
23/9
Temperature / Dewpoint
>10Km
Minimum horizontal visibility
 
Clear sky
1012
Sea level pressure
4.27°E
Magnetic declination
04:55 Z
Sunrise
16:38 Z
Sunset
Map
Show on Google Maps